sensor_id;sensor_type;location;lat;lon;timestamp;P1;durP1;ratioP1;P2;durP2;ratioP2
19396;SDS011;9834;48.076;11.878;2023-05-20T00:01:28;5.03;;;3.00;;
19396;SDS011;9834;48.076;11.878;2023-05-20T00:03:55;4.80;;;3.30;;
19396;SDS011;9834;48.076;11.878;2023-05-20T00:06:22;5.20;;;3.97;;
19396;SDS011;9834;48.076;11.878;2023-05-20T00:08:49;4.67;;;3.97;;
19396;SDS011;9834;48.076;11.878;2023-05-20T00:11:16;3.10;;;2.70;;
19396;SDS011;9834;48.076;11.878;2023-05-20T00:13:44;6.33;;;3.87;;
19396;SDS011;9834;48.076;11.878;2023-05-20T00:16:12;3.40;;;2.63;;
19396;SDS011;9834;48.076;11.878;2023-05-20T00:18:39;3.63;;;3.27;;
19396;SDS011;9834;48.076;11.878;2023-05-20T00:21:09;4.00;;;3.50;;
19396;SDS011;9834;48.076;11.878;2023-05-20T00:23:36;4.17;;;3.77;;
19396;SDS011;9834;48.076;11.878;2023-05-20T00:26:02;7.20;;;4.37;;
19396;SDS011;9834;48.076;11.878;2023-05-20T00:28:29;5.50;;;4.93;;
19396;SDS011;9834;48.076;11.878;2023-05-20T00:30:58;5.60;;;4.63;;
19396;SDS011;9834;48.076;11.878;2023-05-20T00:33:25;6.07;;;5.00;;
19396;SDS011;9834;48.076;11.878;2023-05-20T00:35:52;4.97;;;4.00;;
19396;SDS011;9834;48.076;11.878;2023-05-20T00:38:18;9.60;;;4.90;;
19396;SDS011;9834;48.076;11.878;2023-05-20T00:40:45;6.37;;;4.87;;
19396;SDS011;9834;48.076;11.878;2023-05-20T00:43:12;4.63;;;4.13;;
19396;SDS011;9834;48.076;11.878;2023-05-20T00:45:39;5.53;;;4.57;;
19396;SDS011;9834;48.076;11.878;2023-05-20T00:48:08;5.13;;;4.67;;
19396;SDS011;9834;48.076;11.878;2023-05-20T00:50:35;5.53;;;4.97;;
19396;SDS011;9834;48.076;11.878;2023-05-20T00:53:02;6.80;;;5.63;;
19396;SDS011;9834;48.076;11.878;2023-05-20T00:55:30;7.90;;;5.07;;
19396;SDS011;9834;48.076;11.878;2023-05-20T00:57:58;6.10;;;5.00;;
19396;SDS011;9834;48.076;11.878;2023-05-20T01:00:25;6.57;;;5.40;;
19396;SDS011;9834;48.076;11.878;2023-05-20T01:02:52;6.83;;;4.70;;
19396;SDS011;9834;48.076;11.878;2023-05-20T01:05:22;6.50;;;5.47;;
19396;SDS011;9834;48.076;11.878;2023-05-20T01:07:49;8.50;;;5.63;;
19396;SDS011;9834;48.076;11.878;2023-05-20T01:10:16;5.53;;;4.87;;
19396;SDS011;9834;48.076;11.878;2023-05-20T01:12:45;7.20;;;5.73;;
19396;SDS011;9834;48.076;11.878;2023-05-20T01:15:14;7.30;;;5.40;;
19396;SDS011;9834;48.076;11.878;2023-05-20T01:17:42;6.47;;;5.23;;
19396;SDS011;9834;48.076;11.878;2023-05-20T01:20:13;7.83;;;4.23;;
19396;SDS011;9834;48.076;11.878;2023-05-20T01:22:47;5.30;;;4.73;;
19396;SDS011;9834;48.076;11.878;2023-05-20T01:25:14;9.43;;;5.77;;
19396;SDS011;9834;48.076;11.878;2023-05-20T01:27:41;9.23;;;4.83;;
19396;SDS011;9834;48.076;11.878;2023-05-20T01:30:09;7.33;;;5.27;;
19396;SDS011;9834;48.076;11.878;2023-05-20T01:32:37;7.37;;;5.33;;
19396;SDS011;9834;48.076;11.878;2023-05-20T01:35:08;5.47;;;4.93;;
19396;SDS011;9834;48.076;11.878;2023-05-20T01:37:37;6.87;;;5.83;;
19396;SDS011;9834;48.076;11.878;2023-05-20T01:40:07;7.10;;;5.70;;
19396;SDS011;9834;48.076;11.878;2023-05-20T01:42:36;6.40;;;5.47;;
19396;SDS011;9834;48.076;11.878;2023-05-20T01:45:05;6.00;;;5.10;;
19396;SDS011;9834;48.076;11.878;2023-05-20T01:47:33;6.67;;;5.40;;
19396;SDS011;9834;48.076;11.878;2023-05-20T01:50:00;9.00;;;5.87;;
19396;SDS011;9834;48.076;11.878;2023-05-20T01:52:27;7.40;;;6.10;;
19396;SDS011;9834;48.076;11.878;2023-05-20T01:54:55;6.03;;;5.47;;
19396;SDS011;9834;48.076;11.878;2023-05-20T01:57:25;9.97;;;7.13;;
19396;SDS011;9834;48.076;11.878;2023-05-20T01:59:52;11.30;;;7.37;;
19396;SDS011;9834;48.076;11.878;2023-05-20T02:02:19;13.30;;;8.10;;
19396;SDS011;9834;48.076;11.878;2023-05-20T02:04:47;13.30;;;8.30;;
19396;SDS011;9834;48.076;11.878;2023-05-20T02:07:16;9.63;;;7.97;;
19396;SDS011;9834;48.076;11.878;2023-05-20T02:09:44;12.20;;;8.93;;
19396;SDS011;9834;48.076;11.878;2023-05-20T02:12:11;13.20;;;8.20;;
19396;SDS011;9834;48.076;11.878;2023-05-20T02:14:43;14.57;;;9.27;;
19396;SDS011;9834;48.076;11.878;2023-05-20T02:17:11;9.37;;;8.07;;
19396;SDS011;9834;48.076;11.878;2023-05-20T02:19:40;11.43;;;7.97;;
19396;SDS011;9834;48.076;11.878;2023-05-20T02:22:07;14.47;;;8.97;;
19396;SDS011;9834;48.076;11.878;2023-05-20T02:24:34;12.37;;;9.10;;
19396;SDS011;9834;48.076;11.878;2023-05-20T02:27:01;9.80;;;8.67;;
19396;SDS011;9834;48.076;11.878;2023-05-20T02:29:29;10.83;;;8.93;;
19396;SDS011;9834;48.076;11.878;2023-05-20T02:31:59;12.77;;;8.53;;
19396;SDS011;9834;48.076;11.878;2023-05-20T02:34:26;12.23;;;9.23;;
19396;SDS011;9834;48.076;11.878;2023-05-20T02:36:54;15.67;;;9.30;;
19396;SDS011;9834;48.076;11.878;2023-05-20T02:39:21;11.73;;;9.40;;
19396;SDS011;9834;48.076;11.878;2023-05-20T02:41:48;12.77;;;9.87;;
19396;SDS011;9834;48.076;11.878;2023-05-20T02:44:15;12.23;;;9.83;;
19396;SDS011;9834;48.076;11.878;2023-05-20T02:46:42;16.13;;;10.10;;
19396;SDS011;9834;48.076;11.878;2023-05-20T02:49:10;17.63;;;11.03;;
19396;SDS011;9834;48.076;11.878;2023-05-20T02:51:38;16.47;;;11.10;;
19396;SDS011;9834;48.076;11.878;2023-05-20T02:54:05;13.73;;;9.53;;
19396;SDS011;9834;48.076;11.878;2023-05-20T02:56:32;14.70;;;9.70;;
19396;SDS011;9834;48.076;11.878;2023-05-20T02:58:59;14.27;;;10.97;;
19396;SDS011;9834;48.076;11.878;2023-05-20T03:01:27;15.80;;;10.73;;
19396;SDS011;9834;48.076;11.878;2023-05-20T03:03:54;14.17;;;10.43;;
19396;SDS011;9834;48.076;11.878;2023-05-20T03:06:23;18.60;;;12.57;;
19396;SDS011;9834;48.076;11.878;2023-05-20T03:08:50;14.40;;;11.03;;
19396;SDS011;9834;48.076;11.878;2023-05-20T03:11:17;18.07;;;11.67;;
19396;SDS011;9834;48.076;11.878;2023-05-20T03:13:44;13.27;;;11.13;;
19396;SDS011;9834;48.076;11.878;2023-05-20T03:16:11;13.30;;;9.80;;
19396;SDS011;9834;48.076;11.878;2023-05-20T03:18:39;15.60;;;10.90;;
19396;SDS011;9834;48.076;11.878;2023-05-20T03:21:06;16.03;;;11.37;;
19396;SDS011;9834;48.076;11.878;2023-05-20T03:23:35;15.40;;;10.70;;
19396;SDS011;9834;48.076;11.878;2023-05-20T03:26:01;15.07;;;11.83;;
19396;SDS011;9834;48.076;11.878;2023-05-20T03:28:28;17.20;;;12.10;;
19396;SDS011;9834;48.076;11.878;2023-05-20T03:30:55;17.43;;;12.53;;
19396;SDS011;9834;48.076;11.878;2023-05-20T03:33:22;15.33;;;12.40;;
19396;SDS011;9834;48.076;11.878;2023-05-20T03:35:50;13.30;;;10.57;;
19396;SDS011;9834;48.076;11.878;2023-05-20T03:38:17;22.63;;;13.20;;
19396;SDS011;9834;48.076;11.878;2023-05-20T03:40:45;16.33;;;10.13;;
19396;SDS011;9834;48.076;11.878;2023-05-20T03:43:12;15.43;;;10.80;;
19396;SDS011;9834;48.076;11.878;2023-05-20T03:45:40;19.40;;;12.37;;
19396;SDS011;9834;48.076;11.878;2023-05-20T03:48:07;19.17;;;12.40;;
19396;SDS011;9834;48.076;11.878;2023-05-20T03:50:34;19.53;;;11.33;;
19396;SDS011;9834;48.076;11.878;2023-05-20T03:53:02;20.40;;;12.20;;
19396;SDS011;9834;48.076;11.878;2023-05-20T03:55:28;19.37;;;12.47;;
19396;SDS011;9834;48.076;11.878;2023-05-20T03:57:57;13.93;;;11.10;;
19396;SDS011;9834;48.076;11.878;2023-05-20T04:00:25;13.33;;;10.27;;
19396;SDS011;9834;48.076;11.878;2023-05-20T04:02:54;20.37;;;11.57;;
19396;SDS011;9834;48.076;11.878;2023-05-20T04:05:22;18.17;;;10.90;;
19396;SDS011;9834;48.076;11.878;2023-05-20T04:07:49;16.60;;;11.17;;
19396;SDS011;9834;48.076;11.878;2023-05-20T04:10:17;17.27;;;11.07;;
19396;SDS011;9834;48.076;11.878;2023-05-20T04:12:44;14.37;;;11.80;;
19396;SDS011;9834;48.076;11.878;2023-05-20T04:15:13;16.10;;;11.43;;
19396;SDS011;9834;48.076;11.878;2023-05-20T04:17:40;14.57;;;10.73;;
19396;SDS011;9834;48.076;11.878;2023-05-20T04:20:07;13.00;;;11.43;;
19396;SDS011;9834;48.076;11.878;2023-05-20T04:22:35;14.97;;;11.63;;
19396;SDS011;9834;48.076;11.878;2023-05-20T04:25:03;15.33;;;11.27;;
19396;SDS011;9834;48.076;11.878;2023-05-20T04:27:31;14.10;;;11.03;;
19396;SDS011;9834;48.076;11.878;2023-05-20T04:29:59;14.43;;;11.03;;
19396;SDS011;9834;48.076;11.878;2023-05-20T04:32:29;17.90;;;11.00;;
19396;SDS011;9834;48.076;11.878;2023-05-20T04:34:56;12.63;;;10.70;;
19396;SDS011;9834;48.076;11.878;2023-05-20T04:37:26;19.50;;;12.00;;
19396;SDS011;9834;48.076;11.878;2023-05-20T04:39:53;13.20;;;11.27;;
19396;SDS011;9834;48.076;11.878;2023-05-20T04:42:20;15.83;;;12.30;;
19396;SDS011;9834;48.076;11.878;2023-05-20T04:44:47;18.47;;;10.57;;
19396;SDS011;9834;48.076;11.878;2023-05-20T04:47:14;15.73;;;10.90;;
19396;SDS011;9834;48.076;11.878;2023-05-20T04:49:43;18.40;;;11.30;;
19396;SDS011;9834;48.076;11.878;2023-05-20T04:52:10;11.20;;;10.00;;
19396;SDS011;9834;48.076;11.878;2023-05-20T04:54:37;11.07;;;8.57;;
19396;SDS011;9834;48.076;11.878;2023-05-20T04:57:05;11.03;;;9.53;;
19396;SDS011;9834;48.076;11.878;2023-05-20T04:59:32;14.90;;;10.10;;
19396;SDS011;9834;48.076;11.878;2023-05-20T05:01:59;16.63;;;10.73;;
19396;SDS011;9834;48.076;11.878;2023-05-20T05:04:26;12.07;;;10.43;;
19396;SDS011;9834;48.076;11.878;2023-05-20T05:06:54;16.40;;;12.03;;
19396;SDS011;9834;48.076;11.878;2023-05-20T05:09:21;15.83;;;10.10;;
19396;SDS011;9834;48.076;11.878;2023-05-20T05:11:48;16.60;;;11.37;;
19396;SDS011;9834;48.076;11.878;2023-05-20T05:14:15;14.83;;;10.30;;
19396;SDS011;9834;48.076;11.878;2023-05-20T05:16:42;15.77;;;10.23;;
19396;SDS011;9834;48.076;11.878;2023-05-20T05:19:09;16.83;;;10.97;;
19396;SDS011;9834;48.076;11.878;2023-05-20T05:21:37;17.23;;;10.57;;
19396;SDS011;9834;48.076;11.878;2023-05-20T05:24:05;11.50;;;10.03;;
19396;SDS011;9834;48.076;11.878;2023-05-20T05:26:33;16.07;;;10.77;;
19396;SDS011;9834;48.076;11.878;2023-05-20T05:29:00;17.20;;;10.43;;
19396;SDS011;9834;48.076;11.878;2023-05-20T05:31:26;13.97;;;10.73;;
19396;SDS011;9834;48.076;11.878;2023-05-20T05:33:53;11.37;;;8.57;;
19396;SDS011;9834;48.076;11.878;2023-05-20T05:36:22;12.90;;;9.50;;
19396;SDS011;9834;48.076;11.878;2023-05-20T05:38:49;17.33;;;10.23;;
19396;SDS011;9834;48.076;11.878;2023-05-20T05:41:18;10.93;;;9.07;;
19396;SDS011;9834;48.076;11.878;2023-05-20T05:43:45;14.20;;;9.50;;
19396;SDS011;9834;48.076;11.878;2023-05-20T05:46:12;13.30;;;9.50;;
19396;SDS011;9834;48.076;11.878;2023-05-20T05:48:39;9.87;;;8.27;;
19396;SDS011;9834;48.076;11.878;2023-05-20T05:51:07;10.30;;;9.20;;
19396;SDS011;9834;48.076;11.878;2023-05-20T05:53:34;13.03;;;9.27;;
19396;SDS011;9834;48.076;11.878;2023-05-20T05:56:01;14.23;;;9.37;;
19396;SDS011;9834;48.076;11.878;2023-05-20T05:58:29;9.93;;;8.23;;
19396;SDS011;9834;48.076;11.878;2023-05-20T06:00:57;9.47;;;8.50;;
19396;SDS011;9834;48.076;11.878;2023-05-20T06:03:24;13.33;;;8.83;;
19396;SDS011;9834;48.076;11.878;2023-05-20T06:05:51;12.83;;;10.30;;
19396;SDS011;9834;48.076;11.878;2023-05-20T06:08:18;9.13;;;7.70;;
19396;SDS011;9834;48.076;11.878;2023-05-20T06:10:46;9.30;;;7.93;;
19396;SDS011;9834;48.076;11.878;2023-05-20T06:13:13;7.73;;;6.90;;
19396;SDS011;9834;48.076;11.878;2023-05-20T06:15:42;13.60;;;7.63;;
19396;SDS011;9834;48.076;11.878;2023-05-20T06:18:10;8.60;;;6.27;;
19396;SDS011;9834;48.076;11.878;2023-05-20T06:20:37;7.00;;;6.27;;
19396;SDS011;9834;48.076;11.878;2023-05-20T06:23:04;7.90;;;6.63;;
19396;SDS011;9834;48.076;11.878;2023-05-20T06:25:31;9.57;;;7.17;;
19396;SDS011;9834;48.076;11.878;2023-05-20T06:27:57;8.73;;;6.80;;
19396;SDS011;9834;48.076;11.878;2023-05-20T06:30:24;9.27;;;7.07;;
19396;SDS011;9834;48.076;11.878;2023-05-20T06:32:53;9.83;;;7.43;;
19396;SDS011;9834;48.076;11.878;2023-05-20T06:35:20;9.60;;;6.37;;
19396;SDS011;9834;48.076;11.878;2023-05-20T06:37:46;11.80;;;6.47;;
19396;SDS011;9834;48.076;11.878;2023-05-20T06:40:14;9.10;;;6.83;;
19396;SDS011;9834;48.076;11.878;2023-05-20T06:42:41;9.77;;;6.73;;
19396;SDS011;9834;48.076;11.878;2023-05-20T06:45:08;7.20;;;5.53;;
19396;SDS011;9834;48.076;11.878;2023-05-20T06:47:36;8.47;;;6.43;;
19396;SDS011;9834;48.076;11.878;2023-05-20T06:50:05;7.17;;;5.60;;
19396;SDS011;9834;48.076;11.878;2023-05-20T06:52:32;9.63;;;6.33;;
19396;SDS011;9834;48.076;11.878;2023-05-20T06:54:59;8.57;;;6.63;;
19396;SDS011;9834;48.076;11.878;2023-05-20T06:57:26;13.00;;;5.67;;
19396;SDS011;9834;48.076;11.878;2023-05-20T06:59:53;5.50;;;4.97;;
19396;SDS011;9834;48.076;11.878;2023-05-20T07:02:21;5.07;;;4.67;;
19396;SDS011;9834;48.076;11.878;2023-05-20T07:04:48;6.23;;;5.63;;
19396;SDS011;9834;48.076;11.878;2023-05-20T07:07:18;6.90;;;5.47;;
19396;SDS011;9834;48.076;11.878;2023-05-20T07:09:44;8.90;;;5.70;;
19396;SDS011;9834;48.076;11.878;2023-05-20T07:12:11;6.13;;;5.30;;
19396;SDS011;9834;48.076;11.878;2023-05-20T07:14:38;8.33;;;5.80;;
19396;SDS011;9834;48.076;11.878;2023-05-20T07:17:05;6.13;;;5.47;;
19396;SDS011;9834;48.076;11.878;2023-05-20T07:19:35;7.13;;;5.23;;
19396;SDS011;9834;48.076;11.878;2023-05-20T07:22:02;6.10;;;5.47;;
19396;SDS011;9834;48.076;11.878;2023-05-20T07:24:30;5.90;;;5.03;;
19396;SDS011;9834;48.076;11.878;2023-05-20T07:27:00;15.40;;;4.77;;
19396;SDS011;9834;48.076;11.878;2023-05-20T07:29:28;5.93;;;5.37;;
19396;SDS011;9834;48.076;11.878;2023-05-20T07:31:55;5.33;;;4.77;;
19396;SDS011;9834;48.076;11.878;2023-05-20T07:34:22;5.83;;;5.03;;
19396;SDS011;9834;48.076;11.878;2023-05-20T07:36:49;5.73;;;5.00;;
19396;SDS011;9834;48.076;11.878;2023-05-20T07:39:17;5.13;;;4.70;;
19396;SDS011;9834;48.076;11.878;2023-05-20T07:41:45;5.77;;;4.73;;
19396;SDS011;9834;48.076;11.878;2023-05-20T07:44:12;7.27;;;5.70;;
19396;SDS011;9834;48.076;11.878;2023-05-20T07:46:39;4.87;;;4.43;;
19396;SDS011;9834;48.076;11.878;2023-05-20T07:49:06;5.73;;;4.90;;
19396;SDS011;9834;48.076;11.878;2023-05-20T07:51:34;5.00;;;4.60;;
19396;SDS011;9834;48.076;11.878;2023-05-20T07:54:01;6.03;;;5.03;;
19396;SDS011;9834;48.076;11.878;2023-05-20T07:56:28;4.30;;;3.90;;
19396;SDS011;9834;48.076;11.878;2023-05-20T07:58:57;8.13;;;5.10;;
19396;SDS011;9834;48.076;11.878;2023-05-20T08:01:27;4.73;;;4.33;;
19396;SDS011;9834;48.076;11.878;2023-05-20T08:03:54;5.63;;;3.70;;
19396;SDS011;9834;48.076;11.878;2023-05-20T08:06:21;7.80;;;4.37;;
19396;SDS011;9834;48.076;11.878;2023-05-20T08:08:49;5.47;;;3.83;;
19396;SDS011;9834;48.076;11.878;2023-05-20T08:11:18;7.37;;;3.77;;
19396;SDS011;9834;48.076;11.878;2023-05-20T08:13:45;3.63;;;3.33;;
19396;SDS011;9834;48.076;11.878;2023-05-20T08:16:14;3.00;;;2.73;;
19396;SDS011;9834;48.076;11.878;2023-05-20T08:18:41;4.43;;;3.97;;
19396;SDS011;9834;48.076;11.878;2023-05-20T08:21:07;4.17;;;3.47;;
19396;SDS011;9834;48.076;11.878;2023-05-20T08:23:35;4.40;;;3.47;;
19396;SDS011;9834;48.076;11.878;2023-05-20T08:26:02;3.27;;;2.80;;
19396;SDS011;9834;48.076;11.878;2023-05-20T08:28:29;3.27;;;2.93;;
19396;SDS011;9834;48.076;11.878;2023-05-20T08:30:56;4.70;;;4.03;;
19396;SDS011;9834;48.076;11.878;2023-05-20T08:33:27;3.33;;;3.03;;
19396;SDS011;9834;48.076;11.878;2023-05-20T08:35:54;6.40;;;3.47;;
19396;SDS011;9834;48.076;11.878;2023-05-20T08:38:21;2.67;;;2.50;;
19396;SDS011;9834;48.076;11.878;2023-05-20T08:40:50;3.17;;;2.90;;
19396;SDS011;9834;48.076;11.878;2023-05-20T08:43:18;3.60;;;3.30;;
19396;SDS011;9834;48.076;11.878;2023-05-20T08:45:45;3.17;;;2.67;;
19396;SDS011;9834;48.076;11.878;2023-05-20T08:48:13;3.77;;;3.47;;
19396;SDS011;9834;48.076;11.878;2023-05-20T08:50:43;3.97;;;2.93;;
19396;SDS011;9834;48.076;11.878;2023-05-20T08:53:13;3.15;;;2.80;;
19396;SDS011;9834;48.076;11.878;2023-05-20T08:55:41;2.50;;;2.30;;
19396;SDS011;9834;48.076;11.878;2023-05-20T08:58:10;3.13;;;2.83;;
19396;SDS011;9834;48.076;11.878;2023-05-20T09:00:39;2.78;;;2.35;;
19396;SDS011;9834;48.076;11.878;2023-05-20T09:03:06;3.92;;;2.60;;
19396;SDS011;9834;48.076;11.878;2023-05-20T09:05:34;3.58;;;2.45;;
19396;SDS011;9834;48.076;11.878;2023-05-20T09:08:05;3.67;;;2.83;;
19396;SDS011;9834;48.076;11.878;2023-05-20T09:10:33;1.88;;;1.63;;
19396;SDS011;9834;48.076;11.878;2023-05-20T09:13:01;1.75;;;1.65;;
19396;SDS011;9834;48.076;11.878;2023-05-20T09:15:32;3.50;;;2.75;;
19396;SDS011;9834;48.076;11.878;2023-05-20T09:18:00;2.25;;;2.05;;
19396;SDS011;9834;48.076;11.878;2023-05-20T09:20:28;2.70;;;2.28;;
19396;SDS011;9834;48.076;11.878;2023-05-20T09:22:57;3.17;;;2.53;;
19396;SDS011;9834;48.076;11.878;2023-05-20T09:25:27;2.72;;;2.45;;
19396;SDS011;9834;48.076;11.878;2023-05-20T09:27:54;3.92;;;2.20;;
19396;SDS011;9834;48.076;11.878;2023-05-20T09:30:22;13.25;;;2.58;;
19396;SDS011;9834;48.076;11.878;2023-05-20T09:32:53;2.20;;;1.70;;
19396;SDS011;9834;48.076;11.878;2023-05-20T09:35:20;2.60;;;2.40;;
19396;SDS011;9834;48.076;11.878;2023-05-20T09:37:49;2.83;;;2.45;;
19396;SDS011;9834;48.076;11.878;2023-05-20T09:40:18;8.50;;;2.70;;
19396;SDS011;9834;48.076;11.878;2023-05-20T09:42:51;2.97;;;2.30;;
19396;SDS011;9834;48.076;11.878;2023-05-20T09:45:19;3.05;;;2.67;;
19396;SDS011;9834;48.076;11.878;2023-05-20T09:47:48;2.65;;;2.45;;
19396;SDS011;9834;48.076;11.878;2023-05-20T09:50:16;2.47;;;2.15;;
19396;SDS011;9834;48.076;11.878;2023-05-20T09:52:46;6.00;;;2.88;;
19396;SDS011;9834;48.076;11.878;2023-05-20T09:55:14;2.10;;;1.80;;
19396;SDS011;9834;48.076;11.878;2023-05-20T09:57:43;2.45;;;2.25;;
19396;SDS011;9834;48.076;11.878;2023-05-20T10:00:13;2.90;;;1.98;;
19396;SDS011;9834;48.076;11.878;2023-05-20T10:02:42;2.30;;;2.10;;
19396;SDS011;9834;48.076;11.878;2023-05-20T10:05:11;2.35;;;1.90;;
19396;SDS011;9834;48.076;11.878;2023-05-20T10:10:44;2.17;;;1.98;;
19396;SDS011;9834;48.076;11.878;2023-05-20T10:13:20;2.17;;;2.00;;
19396;SDS011;9834;48.076;11.878;2023-05-20T10:15:59;2.58;;;2.25;;
19396;SDS011;9834;48.076;11.878;2023-05-20T10:18:38;2.42;;;2.22;;
19396;SDS011;9834;48.076;11.878;2023-05-20T10:21:17;2.50;;;2.30;;
19396;SDS011;9834;48.076;11.878;2023-05-20T10:23:48;3.22;;;2.03;;
19396;SDS011;9834;48.076;11.878;2023-05-20T10:26:15;2.30;;;2.10;;
19396;SDS011;9834;48.076;11.878;2023-05-20T10:28:43;2.10;;;2.00;;
19396;SDS011;9834;48.076;11.878;2023-05-20T10:31:16;2.90;;;1.98;;
19396;SDS011;9834;48.076;11.878;2023-05-20T10:33:45;1.92;;;1.80;;
19396;SDS011;9834;48.076;11.878;2023-05-20T10:36:22;2.53;;;2.15;;
19396;SDS011;9834;48.076;11.878;2023-05-20T10:38:52;1.80;;;1.70;;
19396;SDS011;9834;48.076;11.878;2023-05-20T10:41:20;3.53;;;2.30;;
19396;SDS011;9834;48.076;11.878;2023-05-20T10:43:58;12.70;;;2.30;;
19396;SDS011;9834;48.076;11.878;2023-05-20T10:46:27;2.05;;;1.92;;
19396;SDS011;9834;48.076;11.878;2023-05-20T10:48:55;2.10;;;1.90;;
19396;SDS011;9834;48.076;11.878;2023-05-20T10:51:23;2.55;;;1.73;;
19396;SDS011;9834;48.076;11.878;2023-05-20T10:53:53;1.60;;;1.50;;
19396;SDS011;9834;48.076;11.878;2023-05-20T10:56:21;1.88;;;1.77;;
19396;SDS011;9834;48.076;11.878;2023-05-20T10:58:49;2.03;;;1.55;;
19396;SDS011;9834;48.076;11.878;2023-05-20T11:01:17;2.55;;;2.05;;
19396;SDS011;9834;48.076;11.878;2023-05-20T11:03:49;3.70;;;2.30;;
19396;SDS011;9834;48.076;11.878;2023-05-20T11:06:17;1.77;;;1.63;;
19396;SDS011;9834;48.076;11.878;2023-05-20T11:08:45;1.70;;;1.60;;
19396;SDS011;9834;48.076;11.878;2023-05-20T11:11:12;1.42;;;1.33;;
19396;SDS011;9834;48.076;11.878;2023-05-20T11:13:40;1.90;;;1.70;;
19396;SDS011;9834;48.076;11.878;2023-05-20T11:16:07;2.83;;;2.03;;
19396;SDS011;9834;48.076;11.878;2023-05-20T11:18:34;2.08;;;1.80;;
19396;SDS011;9834;48.076;11.878;2023-05-20T11:21:03;2.60;;;1.77;;
19396;SDS011;9834;48.076;11.878;2023-05-20T11:23:29;1.48;;;1.38;;
19396;SDS011;9834;48.076;11.878;2023-05-20T11:25:56;1.65;;;1.42;;
19396;SDS011;9834;48.076;11.878;2023-05-20T11:28:24;2.00;;;1.80;;
19396;SDS011;9834;48.076;11.878;2023-05-20T11:30:51;2.05;;;1.85;;
19396;SDS011;9834;48.076;11.878;2023-05-20T11:33:19;1.55;;;1.45;;
19396;SDS011;9834;48.076;11.878;2023-05-20T11:35:47;1.58;;;1.48;;
19396;SDS011;9834;48.076;11.878;2023-05-20T11:38:16;1.80;;;1.70;;
19396;SDS011;9834;48.076;11.878;2023-05-20T11:40:44;2.42;;;2.17;;
19396;SDS011;9834;48.076;11.878;2023-05-20T11:43:13;1.38;;;1.30;;
19396;SDS011;9834;48.076;11.878;2023-05-20T11:45:41;1.60;;;1.50;;
19396;SDS011;9834;48.076;11.878;2023-05-20T11:48:10;1.77;;;1.67;;
19396;SDS011;9834;48.076;11.878;2023-05-20T11:50:40;1.75;;;1.65;;
19396;SDS011;9834;48.076;11.878;2023-05-20T11:53:13;3.63;;;2.13;;
19396;SDS011;9834;48.076;11.878;2023-05-20T11:55:43;1.63;;;1.50;;
19396;SDS011;9834;48.076;11.878;2023-05-20T11:58:14;1.63;;;1.52;;
19396;SDS011;9834;48.076;11.878;2023-05-20T12:00:42;1.88;;;1.77;;
19396;SDS011;9834;48.076;11.878;2023-05-20T12:03:09;3.42;;;2.10;;
19396;SDS011;9834;48.076;11.878;2023-05-20T12:05:36;1.80;;;1.70;;
19396;SDS011;9834;48.076;11.878;2023-05-20T12:08:03;5.80;;;3.05;;
19396;SDS011;9834;48.076;11.878;2023-05-20T12:10:32;3.42;;;2.35;;
19396;SDS011;9834;48.076;11.878;2023-05-20T12:13:00;2.67;;;2.42;;
19396;SDS011;9834;48.076;11.878;2023-05-20T12:15:27;2.95;;;2.40;;
19396;SDS011;9834;48.076;11.878;2023-05-20T12:17:54;2.58;;;2.38;;
19396;SDS011;9834;48.076;11.878;2023-05-20T12:20:22;2.83;;;2.63;;
19396;SDS011;9834;48.076;11.878;2023-05-20T12:22:50;2.53;;;2.33;;
19396;SDS011;9834;48.076;11.878;2023-05-20T12:25:18;3.60;;;2.17;;
19396;SDS011;9834;48.076;11.878;2023-05-20T12:27:47;2.80;;;2.58;;
19396;SDS011;9834;48.076;11.878;2023-05-20T12:30:15;2.80;;;2.60;;
19396;SDS011;9834;48.076;11.878;2023-05-20T12:32:42;2.80;;;2.60;;
19396;SDS011;9834;48.076;11.878;2023-05-20T12:35:10;6.45;;;3.25;;
19396;SDS011;9834;48.076;11.878;2023-05-20T12:37:38;4.20;;;3.53;;
19396;SDS011;9834;48.076;11.878;2023-05-20T12:40:06;3.78;;;3.13;;
19396;SDS011;9834;48.076;11.878;2023-05-20T12:42:35;3.80;;;3.35;;
19396;SDS011;9834;48.076;11.878;2023-05-20T12:45:04;3.38;;;3.08;;
19396;SDS011;9834;48.076;11.878;2023-05-20T12:47:32;3.85;;;3.55;;
19396;SDS011;9834;48.076;11.878;2023-05-20T12:49:59;3.13;;;2.83;;
19396;SDS011;9834;48.076;11.878;2023-05-20T12:52:27;3.35;;;3.15;;
19396;SDS011;9834;48.076;11.878;2023-05-20T12:54:54;5.85;;;3.38;;
19396;SDS011;9834;48.076;11.878;2023-05-20T12:57:21;3.03;;;2.75;;
19396;SDS011;9834;48.076;11.878;2023-05-20T12:59:49;5.28;;;3.53;;
19396;SDS011;9834;48.076;11.878;2023-05-20T13:02:17;3.92;;;3.53;;
19396;SDS011;9834;48.076;11.878;2023-05-20T13:04:44;4.78;;;3.78;;
19396;SDS011;9834;48.076;11.878;2023-05-20T13:07:11;3.20;;;2.90;;
19396;SDS011;9834;48.076;11.878;2023-05-20T13:09:38;2.80;;;2.60;;
19396;SDS011;9834;48.076;11.878;2023-05-20T13:12:05;3.53;;;3.22;;
19396;SDS011;9834;48.076;11.878;2023-05-20T13:14:33;3.72;;;3.25;;
19396;SDS011;9834;48.076;11.878;2023-05-20T13:17:00;5.70;;;3.55;;
19396;SDS011;9834;48.076;11.878;2023-05-20T13:19:28;5.55;;;4.13;;
19396;SDS011;9834;48.076;11.878;2023-05-20T13:21:55;4.13;;;3.67;;
19396;SDS011;9834;48.076;11.878;2023-05-20T13:24:22;3.92;;;3.55;;
19396;SDS011;9834;48.076;11.878;2023-05-20T13:26:48;3.70;;;3.40;;
19396;SDS011;9834;48.076;11.878;2023-05-20T13:29:15;6.93;;;3.25;;
19396;SDS011;9834;48.076;11.878;2023-05-20T13:31:42;4.68;;;3.30;;
19396;SDS011;9834;48.076;11.878;2023-05-20T13:34:09;3.70;;;3.40;;
19396;SDS011;9834;48.076;11.878;2023-05-20T13:36:38;3.42;;;2.97;;
19396;SDS011;9834;48.076;11.878;2023-05-20T13:39:05;4.82;;;4.10;;
19396;SDS011;9834;48.076;11.878;2023-05-20T13:41:32;3.78;;;3.33;;
19396;SDS011;9834;48.076;11.878;2023-05-20T13:43:59;5.55;;;3.90;;
19396;SDS011;9834;48.076;11.878;2023-05-20T13:46:26;5.60;;;3.20;;
19396;SDS011;9834;48.076;11.878;2023-05-20T13:48:53;7.40;;;3.60;;
19396;SDS011;9834;48.076;11.878;2023-05-20T13:51:20;4.95;;;3.63;;
19396;SDS011;9834;48.076;11.878;2023-05-20T13:53:48;6.13;;;4.00;;
19396;SDS011;9834;48.076;11.878;2023-05-20T13:56:15;3.58;;;3.30;;
19396;SDS011;9834;48.076;11.878;2023-05-20T13:58:43;6.60;;;4.00;;
19396;SDS011;9834;48.076;11.878;2023-05-20T14:01:10;4.97;;;3.70;;
19396;SDS011;9834;48.076;11.878;2023-05-20T14:03:39;3.70;;;3.38;;
19396;SDS011;9834;48.076;11.878;2023-05-20T14:06:07;5.43;;;3.88;;
19396;SDS011;9834;48.076;11.878;2023-05-20T14:08:34;5.25;;;4.60;;
19396;SDS011;9834;48.076;11.878;2023-05-20T14:11:03;3.88;;;3.58;;
19396;SDS011;9834;48.076;11.878;2023-05-20T14:13:30;3.47;;;3.15;;
19396;SDS011;9834;48.076;11.878;2023-05-20T14:15:57;7.63;;;3.60;;
19396;SDS011;9834;48.076;11.878;2023-05-20T14:18:24;4.25;;;3.15;;
19396;SDS011;9834;48.076;11.878;2023-05-20T14:20:51;3.80;;;3.50;;
19396;SDS011;9834;48.076;11.878;2023-05-20T14:23:18;6.53;;;4.40;;
19396;SDS011;9834;48.076;11.878;2023-05-20T14:25:47;5.35;;;4.15;;
19396;SDS011;9834;48.076;11.878;2023-05-20T14:28:16;4.03;;;3.67;;
19396;SDS011;9834;48.076;11.878;2023-05-20T14:30:43;4.22;;;3.83;;
19396;SDS011;9834;48.076;11.878;2023-05-20T14:33:10;5.97;;;3.75;;
19396;SDS011;9834;48.076;11.878;2023-05-20T14:35:37;4.43;;;3.92;;
19396;SDS011;9834;48.076;11.878;2023-05-20T14:38:04;3.20;;;2.92;;
19396;SDS011;9834;48.076;11.878;2023-05-20T14:40:31;8.15;;;3.63;;
19396;SDS011;9834;48.076;11.878;2023-05-20T14:42:59;4.93;;;3.30;;
19396;SDS011;9834;48.076;11.878;2023-05-20T14:45:27;3.85;;;3.45;;
19396;SDS011;9834;48.076;11.878;2023-05-20T14:47:54;6.65;;;5.03;;